AES weather

Public forecast

Using degrees Celsius for public forecast. Weather courtesy of forecast.io.

Closest aviation weather report (METAR) to El Socorro Airport

Report is more than 2 hours old.

Closest report is General Ignacio P. Garcia International Airport, 13.8 nm (25.6 km) NE. Retrieved 2020/08/11 05:40 UTC (5 hours ago):

MMHO 110540Z 00000KT 10SM SCT080 SCT200 34/21 A2994 RMK SLP127 52029 918 8/063 DSNT CB AND OCNL LTGIC E HZY

Closest aviation forecast (TAF) to El Socorro Airport

Closest forecast is General Ignacio P. Garcia International Airport, 13.8 nm (25.6 km) NE. Retrieved 2020/08/11 06:31 UTC (4 hours ago):

TAF MMHO 110424Z 1106/1206 24010KT P6SM SKC FM111900 24010KT P6SM SCT120 BECMG 1200/1201 22005KT